sensor_id;sensor_type;location;lat;lon;timestamp;P1;durP1;ratioP1;P2;durP2;ratioP2
74612;SDS011;63119;51.788;8.824;2023-03-03T00:02:17;29.37;;;12.00;;
74612;SDS011;63119;51.788;8.824;2023-03-03T00:04:42;30.23;;;12.93;;
74612;SDS011;63119;51.788;8.824;2023-03-03T00:07:08;32.57;;;13.70;;
74612;SDS011;63119;51.788;8.824;2023-03-03T00:09:33;30.50;;;12.90;;
74612;SDS011;63119;51.788;8.824;2023-03-03T00:11:58;31.57;;;12.83;;
74612;SDS011;63119;51.788;8.824;2023-03-03T00:14:27;31.15;;;11.35;;
74612;SDS011;63119;51.788;8.824;2023-03-03T00:16:54;33.55;;;12.80;;
74612;SDS011;63119;51.788;8.824;2023-03-03T00:19:21;26.80;;;11.05;;
74612;SDS011;63119;51.788;8.824;2023-03-03T00:21:47;26.48;;;10.60;;
74612;SDS011;63119;51.788;8.824;2023-03-03T00:27:08;28.00;;;11.80;;
74612;SDS011;63119;51.788;8.824;2023-03-03T00:29:49;22.20;;;9.35;;
74612;SDS011;63119;51.788;8.824;2023-03-03T00:34:52;30.65;;;12.15;;
74612;SDS011;63119;51.788;8.824;2023-03-03T00:37:32;27.60;;;10.52;;
74612;SDS011;63119;51.788;8.824;2023-03-03T00:40:13;24.02;;;10.18;;
74612;SDS011;63119;51.788;8.824;2023-03-03T00:42:50;26.38;;;11.30;;
74612;SDS011;63119;51.788;8.824;2023-03-03T00:45:21;27.70;;;11.48;;
74612;SDS011;63119;51.788;8.824;2023-03-03T00:47:51;21.92;;;10.55;;
74612;SDS011;63119;51.788;8.824;2023-03-03T00:50:19;30.48;;;11.13;;
74612;SDS011;63119;51.788;8.824;2023-03-03T00:53:10;24.73;;;10.55;;
74612;SDS011;63119;51.788;8.824;2023-03-03T00:55:38;30.15;;;11.68;;
74612;SDS011;63119;51.788;8.824;2023-03-03T00:58:04;27.58;;;10.70;;
74612;SDS011;63119;51.788;8.824;2023-03-03T01:00:30;31.98;;;11.93;;
74612;SDS011;63119;51.788;8.824;2023-03-03T01:02:55;25.10;;;9.40;;
74612;SDS011;63119;51.788;8.824;2023-03-03T01:05:20;26.03;;;10.77;;
74612;SDS011;63119;51.788;8.824;2023-03-03T01:07:46;25.30;;;10.23;;
74612;SDS011;63119;51.788;8.824;2023-03-03T01:10:11;26.83;;;11.27;;
74612;SDS011;63119;51.788;8.824;2023-03-03T01:12:37;25.42;;;11.23;;
74612;SDS011;63119;51.788;8.824;2023-03-03T01:15:04;32.20;;;12.45;;
74612;SDS011;63119;51.788;8.824;2023-03-03T01:17:33;26.70;;;10.02;;
74612;SDS011;63119;51.788;8.824;2023-03-03T01:19:59;26.10;;;10.85;;
74612;SDS011;63119;51.788;8.824;2023-03-03T01:22:25;27.05;;;10.82;;
74612;SDS011;63119;51.788;8.824;2023-03-03T01:24:50;26.57;;;10.80;;
74612;SDS011;63119;51.788;8.824;2023-03-03T01:27:15;28.40;;;10.80;;
74612;SDS011;63119;51.788;8.824;2023-03-03T01:29:41;26.08;;;10.40;;
74612;SDS011;63119;51.788;8.824;2023-03-03T01:32:06;29.93;;;10.70;;
74612;SDS011;63119;51.788;8.824;2023-03-03T01:34:31;27.33;;;11.20;;
74612;SDS011;63119;51.788;8.824;2023-03-03T01:36:57;30.20;;;11.50;;
74612;SDS011;63119;51.788;8.824;2023-03-03T01:39:24;27.35;;;10.40;;
74612;SDS011;63119;51.788;8.824;2023-03-03T01:41:50;34.80;;;12.57;;
74612;SDS011;63119;51.788;8.824;2023-03-03T01:44:15;24.10;;;10.60;;
74612;SDS011;63119;51.788;8.824;2023-03-03T01:49:16;27.60;;;11.98;;
74612;SDS011;63119;51.788;8.824;2023-03-03T01:51:50;28.17;;;11.60;;
74612;SDS011;63119;51.788;8.824;2023-03-03T01:54:20;36.35;;;11.95;;
74612;SDS011;63119;51.788;8.824;2023-03-03T01:56:50;34.38;;;12.43;;
74612;SDS011;63119;51.788;8.824;2023-03-03T01:59:20;32.58;;;12.50;;
74612;SDS011;63119;51.788;8.824;2023-03-03T02:01:49;31.77;;;12.65;;
74612;SDS011;63119;51.788;8.824;2023-03-03T02:04:15;27.83;;;11.53;;
74612;SDS011;63119;51.788;8.824;2023-03-03T02:06:43;29.48;;;12.13;;
74612;SDS011;63119;51.788;8.824;2023-03-03T02:09:17;31.13;;;11.23;;
74612;SDS011;63119;51.788;8.824;2023-03-03T02:11:51;30.60;;;11.73;;
74612;SDS011;63119;51.788;8.824;2023-03-03T02:14:21;31.27;;;12.35;;
74612;SDS011;63119;51.788;8.824;2023-03-03T02:16:48;34.58;;;12.57;;
74612;SDS011;63119;51.788;8.824;2023-03-03T02:19:19;32.23;;;12.57;;
74612;SDS011;63119;51.788;8.824;2023-03-03T02:21:55;35.47;;;12.80;;
74612;SDS011;63119;51.788;8.824;2023-03-03T02:24:25;32.80;;;12.48;;
74612;SDS011;63119;51.788;8.824;2023-03-03T02:26:55;37.40;;;12.77;;
74612;SDS011;63119;51.788;8.824;2023-03-03T02:29:20;37.75;;;13.07;;
74612;SDS011;63119;51.788;8.824;2023-03-03T02:31:45;35.53;;;13.03;;
74612;SDS011;63119;51.788;8.824;2023-03-03T02:34:10;37.30;;;12.93;;
74612;SDS011;63119;51.788;8.824;2023-03-03T02:36:37;33.75;;;12.48;;
74612;SDS011;63119;51.788;8.824;2023-03-03T02:39:05;31.45;;;13.75;;
74612;SDS011;63119;51.788;8.824;2023-03-03T02:41:37;37.92;;;11.38;;
74612;SDS011;63119;51.788;8.824;2023-03-03T02:44:08;34.63;;;12.65;;
74612;SDS011;63119;51.788;8.824;2023-03-03T02:46:36;32.85;;;12.27;;
74612;SDS011;63119;51.788;8.824;2023-03-03T02:49:03;26.90;;;9.88;;
74612;SDS011;63119;51.788;8.824;2023-03-03T02:51:30;26.13;;;11.27;;
74612;SDS011;63119;51.788;8.824;2023-03-03T02:53:56;30.67;;;11.60;;
74612;SDS011;63119;51.788;8.824;2023-03-03T02:56:21;29.95;;;11.52;;
74612;SDS011;63119;51.788;8.824;2023-03-03T02:58:47;28.27;;;10.93;;
74612;SDS011;63119;51.788;8.824;2023-03-03T03:01:12;28.08;;;9.95;;
74612;SDS011;63119;51.788;8.824;2023-03-03T03:03:37;22.03;;;8.23;;
74612;SDS011;63119;51.788;8.824;2023-03-03T03:06:03;21.45;;;8.40;;
74612;SDS011;63119;51.788;8.824;2023-03-03T03:08:28;25.83;;;9.80;;
74612;SDS011;63119;51.788;8.824;2023-03-03T03:10:54;24.58;;;8.85;;
74612;SDS011;63119;51.788;8.824;2023-03-03T03:13:20;24.42;;;9.15;;
74612;SDS011;63119;51.788;8.824;2023-03-03T03:15:46;21.58;;;8.27;;
74612;SDS011;63119;51.788;8.824;2023-03-03T03:18:13;21.20;;;7.90;;
74612;SDS011;63119;51.788;8.824;2023-03-03T03:20:39;23.55;;;8.80;;
74612;SDS011;63119;51.788;8.824;2023-03-03T03:23:05;22.15;;;8.30;;
74612;SDS011;63119;51.788;8.824;2023-03-03T03:25:31;24.60;;;9.48;;
74612;SDS011;63119;51.788;8.824;2023-03-03T03:27:56;27.42;;;9.27;;
74612;SDS011;63119;51.788;8.824;2023-03-03T03:30:22;25.33;;;8.87;;
74612;SDS011;63119;51.788;8.824;2023-03-03T03:32:47;23.25;;;8.73;;
74612;SDS011;63119;51.788;8.824;2023-03-03T03:35:12;24.17;;;9.10;;
74612;SDS011;63119;51.788;8.824;2023-03-03T03:37:38;23.15;;;7.75;;
74612;SDS011;63119;51.788;8.824;2023-03-03T03:40:04;21.40;;;9.15;;
74612;SDS011;63119;51.788;8.824;2023-03-03T03:42:30;19.35;;;8.20;;
74612;SDS011;63119;51.788;8.824;2023-03-03T03:44:55;23.70;;;8.57;;
74612;SDS011;63119;51.788;8.824;2023-03-03T03:47:21;23.73;;;9.20;;
74612;SDS011;63119;51.788;8.824;2023-03-03T03:49:46;23.43;;;8.50;;
74612;SDS011;63119;51.788;8.824;2023-03-03T03:52:11;24.37;;;9.30;;
74612;SDS011;63119;51.788;8.824;2023-03-03T03:54:36;21.57;;;7.83;;
74612;SDS011;63119;51.788;8.824;2023-03-03T03:57:02;24.15;;;9.38;;
74612;SDS011;63119;51.788;8.824;2023-03-03T03:59:27;24.23;;;8.52;;
74612;SDS011;63119;51.788;8.824;2023-03-03T04:01:52;19.67;;;6.77;;
74612;SDS011;63119;51.788;8.824;2023-03-03T04:04:18;17.63;;;7.73;;
74612;SDS011;63119;51.788;8.824;2023-03-03T04:06:43;23.00;;;7.95;;
74612;SDS011;63119;51.788;8.824;2023-03-03T04:09:09;22.03;;;8.33;;
74612;SDS011;63119;51.788;8.824;2023-03-03T04:11:34;20.38;;;7.63;;
74612;SDS011;63119;51.788;8.824;2023-03-03T04:13:59;23.10;;;8.17;;
74612;SDS011;63119;51.788;8.824;2023-03-03T04:16:25;21.27;;;7.70;;
74612;SDS011;63119;51.788;8.824;2023-03-03T04:18:50;26.57;;;8.33;;
74612;SDS011;63119;51.788;8.824;2023-03-03T04:21:15;23.07;;;8.60;;
74612;SDS011;63119;51.788;8.824;2023-03-03T04:23:41;23.83;;;9.05;;
74612;SDS011;63119;51.788;8.824;2023-03-03T04:26:06;27.13;;;8.53;;
74612;SDS011;63119;51.788;8.824;2023-03-03T04:28:32;21.10;;;8.20;;
74612;SDS011;63119;51.788;8.824;2023-03-03T04:30:58;27.00;;;8.67;;
74612;SDS011;63119;51.788;8.824;2023-03-03T04:33:23;24.53;;;9.40;;
74612;SDS011;63119;51.788;8.824;2023-03-03T04:35:48;26.33;;;9.43;;
74612;SDS011;63119;51.788;8.824;2023-03-03T04:38:14;29.33;;;10.03;;
74612;SDS011;63119;51.788;8.824;2023-03-03T04:40:40;24.30;;;8.70;;
74612;SDS011;63119;51.788;8.824;2023-03-03T04:43:05;25.05;;;8.88;;
74612;SDS011;63119;51.788;8.824;2023-03-03T04:45:31;26.10;;;8.93;;
74612;SDS011;63119;51.788;8.824;2023-03-03T04:47:56;25.65;;;8.80;;
74612;SDS011;63119;51.788;8.824;2023-03-03T04:50:21;27.70;;;9.13;;
74612;SDS011;63119;51.788;8.824;2023-03-03T04:52:47;20.63;;;8.73;;
74612;SDS011;63119;51.788;8.824;2023-03-03T04:55:12;26.20;;;8.80;;
74612;SDS011;63119;51.788;8.824;2023-03-03T04:57:38;23.92;;;8.85;;
74612;SDS011;63119;51.788;8.824;2023-03-03T05:00:03;25.55;;;10.63;;
74612;SDS011;63119;51.788;8.824;2023-03-03T05:02:30;29.80;;;9.90;;
74612;SDS011;63119;51.788;8.824;2023-03-03T05:04:55;22.37;;;8.67;;
74612;SDS011;63119;51.788;8.824;2023-03-03T05:07:21;29.80;;;10.03;;
74612;SDS011;63119;51.788;8.824;2023-03-03T05:09:46;27.13;;;9.13;;
74612;SDS011;63119;51.788;8.824;2023-03-03T05:12:11;37.87;;;13.70;;
74612;SDS011;63119;51.788;8.824;2023-03-03T05:14:36;28.93;;;8.93;;
74612;SDS011;63119;51.788;8.824;2023-03-03T05:17:02;28.63;;;8.87;;
74612;SDS011;63119;51.788;8.824;2023-03-03T05:19:28;30.02;;;8.77;;
74612;SDS011;63119;51.788;8.824;2023-03-03T05:21:54;25.00;;;9.07;;
74612;SDS011;63119;51.788;8.824;2023-03-03T05:24:19;29.73;;;10.23;;
74612;SDS011;63119;51.788;8.824;2023-03-03T05:26:45;27.80;;;9.23;;
74612;SDS011;63119;51.788;8.824;2023-03-03T05:29:10;29.73;;;9.77;;
74612;SDS011;63119;51.788;8.824;2023-03-03T05:31:35;23.10;;;8.70;;
74612;SDS011;63119;51.788;8.824;2023-03-03T05:34:00;19.33;;;8.33;;
74612;SDS011;63119;51.788;8.824;2023-03-03T05:36:26;19.80;;;8.02;;
74612;SDS011;63119;51.788;8.824;2023-03-03T05:38:51;19.73;;;7.87;;
74612;SDS011;63119;51.788;8.824;2023-03-03T05:41:17;18.23;;;7.38;;
74612;SDS011;63119;51.788;8.824;2023-03-03T05:43:42;20.63;;;7.43;;
74612;SDS011;63119;51.788;8.824;2023-03-03T05:46:07;24.20;;;9.05;;
74612;SDS011;63119;51.788;8.824;2023-03-03T05:48:33;19.20;;;7.20;;
74612;SDS011;63119;51.788;8.824;2023-03-03T05:50:58;21.83;;;7.63;;
74612;SDS011;63119;51.788;8.824;2023-03-03T05:53:24;24.13;;;8.93;;
74612;SDS011;63119;51.788;8.824;2023-03-03T05:55:50;21.45;;;9.07;;
74612;SDS011;63119;51.788;8.824;2023-03-03T05:58:15;21.70;;;8.00;;
74612;SDS011;63119;51.788;8.824;2023-03-03T06:00:41;20.80;;;8.33;;
74612;SDS011;63119;51.788;8.824;2023-03-03T06:03:06;20.70;;;8.23;;
74612;SDS011;63119;51.788;8.824;2023-03-03T06:05:31;23.20;;;8.23;;
74612;SDS011;63119;51.788;8.824;2023-03-03T06:07:57;21.80;;;8.17;;
74612;SDS011;63119;51.788;8.824;2023-03-03T06:10:22;23.88;;;8.95;;
74612;SDS011;63119;51.788;8.824;2023-03-03T06:12:47;29.37;;;10.80;;
74612;SDS011;63119;51.788;8.824;2023-03-03T06:15:12;27.73;;;10.30;;
74612;SDS011;63119;51.788;8.824;2023-03-03T06:17:38;21.37;;;9.17;;
74612;SDS011;63119;51.788;8.824;2023-03-03T06:20:03;24.63;;;9.07;;
74612;SDS011;63119;51.788;8.824;2023-03-03T06:22:29;20.13;;;8.35;;
74612;SDS011;63119;51.788;8.824;2023-03-03T06:24:54;25.17;;;8.47;;
74612;SDS011;63119;51.788;8.824;2023-03-03T06:27:19;24.20;;;9.27;;
74612;SDS011;63119;51.788;8.824;2023-03-03T06:29:45;18.57;;;7.37;;
74612;SDS011;63119;51.788;8.824;2023-03-03T06:32:10;19.77;;;8.00;;
74612;SDS011;63119;51.788;8.824;2023-03-03T06:39:29;22.17;;;8.13;;
74612;SDS011;63119;51.788;8.824;2023-03-03T06:41:54;21.00;;;8.13;;
74612;SDS011;63119;51.788;8.824;2023-03-03T06:44:19;25.53;;;9.30;;
74612;SDS011;63119;51.788;8.824;2023-03-03T06:46:45;25.00;;;9.00;;
74612;SDS011;63119;51.788;8.824;2023-03-03T06:49:10;20.37;;;7.83;;
74612;SDS011;63119;51.788;8.824;2023-03-03T06:51:36;23.07;;;9.20;;
74612;SDS011;63119;51.788;8.824;2023-03-03T06:54:13;21.35;;;8.65;;
74612;SDS011;63119;51.788;8.824;2023-03-03T06:56:41;26.00;;;9.38;;
74612;SDS011;63119;51.788;8.824;2023-03-03T06:59:11;24.33;;;9.65;;
74612;SDS011;63119;51.788;8.824;2023-03-03T07:01:41;22.63;;;9.25;;
74612;SDS011;63119;51.788;8.824;2023-03-03T07:06:52;21.13;;;8.65;;
74612;SDS011;63119;51.788;8.824;2023-03-03T07:09:22;23.00;;;8.73;;
74612;SDS011;63119;51.788;8.824;2023-03-03T07:11:50;23.95;;;8.40;;
74612;SDS011;63119;51.788;8.824;2023-03-03T07:14:17;20.70;;;8.25;;
74612;SDS011;63119;51.788;8.824;2023-03-03T07:16:44;19.75;;;7.63;;
74612;SDS011;63119;51.788;8.824;2023-03-03T07:19:13;19.50;;;7.90;;
74612;SDS011;63119;51.788;8.824;2023-03-03T07:21:43;26.92;;;8.40;;
74612;SDS011;63119;51.788;8.824;2023-03-03T07:31:46;20.60;;;8.00;;
74612;SDS011;63119;51.788;8.824;2023-03-03T07:34:26;20.85;;;7.85;;
74612;SDS011;63119;51.788;8.824;2023-03-03T07:37:08;19.48;;;6.72;;
74612;SDS011;63119;51.788;8.824;2023-03-03T07:39:38;19.05;;;7.07;;
74612;SDS011;63119;51.788;8.824;2023-03-03T07:44:44;17.25;;;7.35;;
74612;SDS011;63119;51.788;8.824;2023-03-03T07:47:34;19.60;;;7.53;;
74612;SDS011;63119;51.788;8.824;2023-03-03T07:50:07;19.40;;;6.90;;
74612;SDS011;63119;51.788;8.824;2023-03-03T07:52:38;17.23;;;7.38;;
74612;SDS011;63119;51.788;8.824;2023-03-03T07:57:53;19.95;;;8.18;;
74612;SDS011;63119;51.788;8.824;2023-03-03T08:02:54;15.48;;;6.32;;
74612;SDS011;63119;51.788;8.824;2023-03-03T08:08:09;13.98;;;6.05;;
74612;SDS011;63119;51.788;8.824;2023-03-03T08:10:54;15.85;;;6.00;;
74612;SDS011;63119;51.788;8.824;2023-03-03T08:18:47;14.13;;;5.87;;
74612;SDS011;63119;51.788;8.824;2023-03-03T08:21:15;14.50;;;6.40;;
74612;SDS011;63119;51.788;8.824;2023-03-03T08:23:43;17.23;;;6.40;;
74612;SDS011;63119;51.788;8.824;2023-03-03T08:26:08;12.88;;;6.25;;
74612;SDS011;63119;51.788;8.824;2023-03-03T08:28:36;17.05;;;6.75;;
74612;SDS011;63119;51.788;8.824;2023-03-03T08:31:02;19.75;;;6.78;;
74612;SDS011;63119;51.788;8.824;2023-03-03T08:33:28;20.08;;;6.57;;
74612;SDS011;63119;51.788;8.824;2023-03-03T08:35:53;14.97;;;5.80;;
74612;SDS011;63119;51.788;8.824;2023-03-03T08:38:19;13.83;;;6.07;;
74612;SDS011;63119;51.788;8.824;2023-03-03T08:40:46;14.90;;;5.88;;
74612;SDS011;63119;51.788;8.824;2023-03-03T08:43:12;15.40;;;6.85;;
74612;SDS011;63119;51.788;8.824;2023-03-03T08:45:41;13.68;;;6.43;;
74612;SDS011;63119;51.788;8.824;2023-03-03T08:48:07;13.30;;;5.85;;
74612;SDS011;63119;51.788;8.824;2023-03-03T08:50:33;14.03;;;6.03;;
74612;SDS011;63119;51.788;8.824;2023-03-03T08:52:58;15.20;;;6.33;;
74612;SDS011;63119;51.788;8.824;2023-03-03T08:55:24;15.40;;;6.57;;
74612;SDS011;63119;51.788;8.824;2023-03-03T08:57:49;14.40;;;6.70;;
74612;SDS011;63119;51.788;8.824;2023-03-03T09:02:41;16.95;;;5.78;;
74612;SDS011;63119;51.788;8.824;2023-03-03T09:05:07;16.45;;;6.25;;
74612;SDS011;63119;51.788;8.824;2023-03-03T09:07:33;14.85;;;6.35;;
74612;SDS011;63119;51.788;8.824;2023-03-03T09:09:59;17.92;;;6.30;;
74612;SDS011;63119;51.788;8.824;2023-03-03T09:12:34;19.00;;;6.43;;
74612;SDS011;63119;51.788;8.824;2023-03-03T09:15:19;16.13;;;7.28;;
74612;SDS011;63119;51.788;8.824;2023-03-03T09:17:57;17.65;;;6.30;;
74612;SDS011;63119;51.788;8.824;2023-03-03T09:25:55;17.05;;;6.20;;
74612;SDS011;63119;51.788;8.824;2023-03-03T09:28:25;20.23;;;7.22;;
74612;SDS011;63119;51.788;8.824;2023-03-03T09:30:53;19.45;;;6.50;;
74612;SDS011;63119;51.788;8.824;2023-03-03T09:33:30;20.10;;;7.15;;
74612;SDS011;63119;51.788;8.824;2023-03-03T09:36:22;16.42;;;6.00;;
74612;SDS011;63119;51.788;8.824;2023-03-03T09:38:49;20.30;;;7.32;;
74612;SDS011;63119;51.788;8.824;2023-03-03T09:41:22;17.67;;;7.03;;
74612;SDS011;63119;51.788;8.824;2023-03-03T09:46:56;13.63;;;6.05;;
74612;SDS011;63119;51.788;8.824;2023-03-03T09:54:50;16.20;;;5.60;;
74612;SDS011;63119;51.788;8.824;2023-03-03T09:57:38;15.43;;;6.00;;
74612;SDS011;63119;51.788;8.824;2023-03-03T10:03:44;10.00;;;4.43;;
74612;SDS011;63119;51.788;8.824;2023-03-03T10:06:03;10.48;;;5.03;;
74612;SDS011;63119;51.788;8.824;2023-03-03T10:17:11;13.35;;;4.57;;
74612;SDS011;63119;51.788;8.824;2023-03-03T10:19:50;9.07;;;4.22;;
74612;SDS011;63119;51.788;8.824;2023-03-03T10:22:29;11.43;;;4.40;;
74612;SDS011;63119;51.788;8.824;2023-03-03T10:27:49;11.30;;;4.20;;
74612;SDS011;63119;51.788;8.824;2023-03-03T10:30:55;9.75;;;4.40;;
74612;SDS011;63119;51.788;8.824;2023-03-03T10:36:11;8.48;;;4.35;;
74612;SDS011;63119;51.788;8.824;2023-03-03T10:41:53;12.93;;;4.75;;
74612;SDS011;63119;51.788;8.824;2023-03-03T10:50:23;12.32;;;4.20;;
74612;SDS011;63119;51.788;8.824;2023-03-03T10:53:18;10.95;;;4.88;;
74612;SDS011;63119;51.788;8.824;2023-03-03T10:55:53;11.88;;;5.25;;
74612;SDS011;63119;51.788;8.824;2023-03-03T10:58:33;8.65;;;4.47;;
74612;SDS011;63119;51.788;8.824;2023-03-03T11:06:19;12.07;;;5.07;;
74612;SDS011;63119;51.788;8.824;2023-03-03T11:11:47;13.77;;;5.22;;
74612;SDS011;63119;51.788;8.824;2023-03-03T11:14:26;10.90;;;4.85;;
74612;SDS011;63119;51.788;8.824;2023-03-03T11:17:10;10.50;;;5.15;;
74612;SDS011;63119;51.788;8.824;2023-03-03T11:19:53;14.77;;;5.72;;
74612;SDS011;63119;51.788;8.824;2023-03-03T11:27:58;12.27;;;5.28;;
74612;SDS011;63119;51.788;8.824;2023-03-03T11:33:33;11.93;;;5.97;;
74612;SDS011;63119;51.788;8.824;2023-03-03T11:41:41;16.15;;;6.22;;
74612;SDS011;63119;51.788;8.824;2023-03-03T11:44:23;13.07;;;5.97;;
74612;SDS011;63119;51.788;8.824;2023-03-03T11:47:43;12.75;;;5.45;;
74612;SDS011;63119;51.788;8.824;2023-03-03T11:50:20;13.32;;;5.70;;
74612;SDS011;63119;51.788;8.824;2023-03-03T11:53:13;11.85;;;5.13;;
74612;SDS011;63119;51.788;8.824;2023-03-03T11:56:15;13.13;;;5.20;;
74612;SDS011;63119;51.788;8.824;2023-03-03T11:59:20;14.43;;;6.60;;
74612;SDS011;63119;51.788;8.824;2023-03-03T12:05:04;13.15;;;5.78;;
74612;SDS011;63119;51.788;8.824;2023-03-03T12:07:47;14.85;;;5.65;;
74612;SDS011;63119;51.788;8.824;2023-03-03T12:13:22;14.15;;;5.47;;
74612;SDS011;63119;51.788;8.824;2023-03-03T12:15:50;13.07;;;5.72;;
74612;SDS011;63119;51.788;8.824;2023-03-03T12:21:06;12.48;;;5.15;;
74612;SDS011;63119;51.788;8.824;2023-03-03T12:29:49;14.40;;;5.63;;
74612;SDS011;63119;51.788;8.824;2023-03-03T12:32:32;12.07;;;5.78;;
74612;SDS011;63119;51.788;8.824;2023-03-03T12:35:10;11.63;;;5.85;;
74612;SDS011;63119;51.788;8.824;2023-03-03T12:37:49;13.35;;;5.88;;
74612;SDS011;63119;51.788;8.824;2023-03-03T12:40:24;15.45;;;8.35;;
74612;SDS011;63119;51.788;8.824;2023-03-03T12:45:48;12.88;;;5.93;;
74612;SDS011;63119;51.788;8.824;2023-03-03T12:48:33;10.35;;;5.57;;
74612;SDS011;63119;51.788;8.824;2023-03-03T12:57:00;10.35;;;4.97;;
74612;SDS011;63119;51.788;8.824;2023-03-03T12:59:42;10.23;;;4.90;;
74612;SDS011;63119;51.788;8.824;2023-03-03T13:10:58;11.70;;;5.25;;
74612;SDS011;63119;51.788;8.824;2023-03-03T13:13:33;10.88;;;4.47;;
74612;SDS011;63119;51.788;8.824;2023-03-03T13:16:17;11.95;;;5.65;;
74612;SDS011;63119;51.788;8.824;2023-03-03T13:21:38;11.95;;;4.82;;
74612;SDS011;63119;51.788;8.824;2023-03-03T13:24:17;11.75;;;5.28;;
74612;SDS011;63119;51.788;8.824;2023-03-03T13:27:03;12.35;;;5.07;;
74612;SDS011;63119;51.788;8.824;2023-03-03T13:29:34;11.35;;;5.57;;
74612;SDS011;63119;51.788;8.824;2023-03-03T13:32:11;15.30;;;5.95;;
74612;SDS011;63119;51.788;8.824;2023-03-03T13:34:50;14.80;;;5.95;;
74612;SDS011;63119;51.788;8.824;2023-03-03T13:37:29;14.48;;;6.25;;
74612;SDS011;63119;51.788;8.824;2023-03-03T13:40:44;14.38;;;6.38;;
74612;SDS011;63119;51.788;8.824;2023-03-03T13:43:16;17.30;;;11.10;;
74612;SDS011;63119;51.788;8.824;2023-03-03T13:45:49;15.02;;;7.97;;
74612;SDS011;63119;51.788;8.824;2023-03-03T13:48:24;14.60;;;6.18;;
74612;SDS011;63119;51.788;8.824;2023-03-03T13:51:01;15.45;;;7.28;;
74612;SDS011;63119;51.788;8.824;2023-03-03T13:53:42;16.10;;;6.85;;
74612;SDS011;63119;51.788;8.824;2023-03-03T13:59:17;15.35;;;6.22;;
74612;SDS011;63119;51.788;8.824;2023-03-03T14:01:52;14.50;;;6.38;;
74612;SDS011;63119;51.788;8.824;2023-03-03T14:07:10;13.45;;;5.32;;
74612;SDS011;63119;51.788;8.824;2023-03-03T14:09:47;16.73;;;7.22;;
74612;SDS011;63119;51.788;8.824;2023-03-03T14:12:33;14.82;;;7.05;;
74612;SDS011;63119;51.788;8.824;2023-03-03T14:15:23;14.82;;;6.70;;
74612;SDS011;63119;51.788;8.824;2023-03-03T14:17:54;15.52;;;5.95;;
74612;SDS011;63119;51.788;8.824;2023-03-03T14:20:31;14.68;;;6.05;;
74612;SDS011;63119;51.788;8.824;2023-03-03T14:23:03;16.88;;;6.57;;
74612;SDS011;63119;51.788;8.824;2023-03-03T14:25:49;15.70;;;7.00;;
74612;SDS011;63119;51.788;8.824;2023-03-03T14:28:40;17.80;;;7.07;;
74612;SDS011;63119;51.788;8.824;2023-03-03T14:31:22;13.57;;;6.63;;
74612;SDS011;63119;51.788;8.824;2023-03-03T14:34:00;16.70;;;6.28;;
74612;SDS011;63119;51.788;8.824;2023-03-03T14:36:37;14.32;;;6.57;;
74612;SDS011;63119;51.788;8.824;2023-03-03T14:39:29;13.35;;;5.35;;
74612;SDS011;63119;51.788;8.824;2023-03-03T14:41:58;14.10;;;6.68;;
74612;SDS011;63119;51.788;8.824;2023-03-03T14:44:26;16.80;;;6.82;;
74612;SDS011;63119;51.788;8.824;2023-03-03T14:47:01;16.55;;;7.15;;
74612;SDS011;63119;51.788;8.824;2023-03-03T14:49:36;14.15;;;7.40;;
74612;SDS011;63119;51.788;8.824;2023-03-03T14:52:04;16.67;;;6.95;;
74612;SDS011;63119;51.788;8.824;2023-03-03T14:54:44;16.48;;;7.20;;
74612;SDS011;63119;51.788;8.824;2023-03-03T14:57:15;20.55;;;7.65;;
74612;SDS011;63119;51.788;8.824;2023-03-03T15:02:44;18.48;;;7.97;;
74612;SDS011;63119;51.788;8.824;2023-03-03T15:05:17;19.23;;;8.15;;
74612;SDS011;63119;51.788;8.824;2023-03-03T15:07:51;18.42;;;7.63;;
74612;SDS011;63119;51.788;8.824;2023-03-03T15:10:53;17.77;;;8.30;;
74612;SDS011;63119;51.788;8.824;2023-03-03T15:15:50;19.33;;;9.27;;
74612;SDS011;63119;51.788;8.824;2023-03-03T15:18:28;20.58;;;7.63;;
74612;SDS011;63119;51.788;8.824;2023-03-03T15:34:38;19.75;;;8.75;;
74612;SDS011;63119;51.788;8.824;2023-03-03T15:39:55;26.63;;;9.70;;
74612;SDS011;63119;51.788;8.824;2023-03-03T15:42:32;23.48;;;9.32;;
74612;SDS011;63119;51.788;8.824;2023-03-03T15:48:05;31.55;;;13.57;;
74612;SDS011;63119;51.788;8.824;2023-03-03T15:50:43;27.42;;;9.90;;
74612;SDS011;63119;51.788;8.824;2023-03-03T15:56:08;26.08;;;9.75;;
74612;SDS011;63119;51.788;8.824;2023-03-03T15:58:48;22.92;;;9.00;;
74612;SDS011;63119;51.788;8.824;2023-03-03T16:04:12;29.00;;;10.55;;
74612;SDS011;63119;51.788;8.824;2023-03-03T16:06:55;29.38;;;13.02;;
74612;SDS011;63119;51.788;8.824;2023-03-03T16:15:23;23.75;;;9.02;;
74612;SDS011;63119;51.788;8.824;2023-03-03T16:18:01;25.48;;;9.13;;
74612;SDS011;63119;51.788;8.824;2023-03-03T16:20:43;25.30;;;9.95;;
74612;SDS011;63119;51.788;8.824;2023-03-03T16:23:18;29.40;;;12.35;;
74612;SDS011;63119;51.788;8.824;2023-03-03T16:26:06;28.40;;;11.27;;
74612;SDS011;63119;51.788;8.824;2023-03-03T16:31:50;30.85;;;11.63;;
74612;SDS011;63119;51.788;8.824;2023-03-03T16:34:24;32.75;;;11.90;;
74612;SDS011;63119;51.788;8.824;2023-03-03T16:37:13;28.63;;;10.73;;
74612;SDS011;63119;51.788;8.824;2023-03-03T16:39:55;26.23;;;11.02;;
74612;SDS011;63119;51.788;8.824;2023-03-03T16:42:32;28.38;;;12.18;;
74612;SDS011;63119;51.788;8.824;2023-03-03T16:45:05;27.88;;;10.55;;
74612;SDS011;63119;51.788;8.824;2023-03-03T16:50:45;26.13;;;9.52;;
74612;SDS011;63119;51.788;8.824;2023-03-03T16:53:42;20.00;;;8.77;;
74612;SDS011;63119;51.788;8.824;2023-03-03T16:56:21;22.02;;;9.63;;
74612;SDS011;63119;51.788;8.824;2023-03-03T17:01:36;25.38;;;9.30;;
74612;SDS011;63119;51.788;8.824;2023-03-03T17:06:58;24.95;;;8.80;;
74612;SDS011;63119;51.788;8.824;2023-03-03T17:09:32;22.08;;;8.15;;
74612;SDS011;63119;51.788;8.824;2023-03-03T17:15:02;21.42;;;9.13;;
74612;SDS011;63119;51.788;8.824;2023-03-03T17:20:15;26.30;;;9.80;;
74612;SDS011;63119;51.788;8.824;2023-03-03T17:23:09;48.90;;;19.42;;
74612;SDS011;63119;51.788;8.824;2023-03-03T17:26:10;28.20;;;11.63;;
74612;SDS011;63119;51.788;8.824;2023-03-03T17:28:59;33.33;;;12.90;;
74612;SDS011;63119;51.788;8.824;2023-03-03T17:34:16;28.85;;;9.93;;
74612;SDS011;63119;51.788;8.824;2023-03-03T17:37:03;27.02;;;10.32;;
74612;SDS011;63119;51.788;8.824;2023-03-03T17:45:09;22.63;;;10.40;;
74612;SDS011;63119;51.788;8.824;2023-03-03T17:56:47;23.23;;;10.27;;
74612;SDS011;63119;51.788;8.824;2023-03-03T18:01:54;28.95;;;12.05;;
74612;SDS011;63119;51.788;8.824;2023-03-03T18:04:58;31.02;;;12.43;;
74612;SDS011;63119;51.788;8.824;2023-03-03T18:07:38;34.17;;;12.65;;
74612;SDS011;63119;51.788;8.824;2023-03-03T18:16:03;29.73;;;12.80;;
74612;SDS011;63119;51.788;8.824;2023-03-03T18:21:50;28.60;;;12.68;;
74612;SDS011;63119;51.788;8.824;2023-03-03T18:26:52;31.38;;;13.32;;
74612;SDS011;63119;51.788;8.824;2023-03-03T18:29:22;30.55;;;13.68;;
74612;SDS011;63119;51.788;8.824;2023-03-03T18:36:52;25.33;;;10.18;;
74612;SDS011;63119;51.788;8.824;2023-03-03T18:39:33;33.25;;;10.88;;
74612;SDS011;63119;51.788;8.824;2023-03-03T18:44:54;24.38;;;9.15;;
74612;SDS011;63119;51.788;8.824;2023-03-03T18:47:24;26.42;;;9.50;;
74612;SDS011;63119;51.788;8.824;2023-03-03T18:55:46;26.23;;;10.77;;
74612;SDS011;63119;51.788;8.824;2023-03-03T19:01:13;30.43;;;10.43;;
74612;SDS011;63119;51.788;8.824;2023-03-03T19:06:11;29.85;;;9.95;;
74612;SDS011;63119;51.788;8.824;2023-03-03T19:09:19;28.83;;;10.68;;